sensor_id;sensor_type;location;lat;lon;timestamp;temperature;humidity
37886;DHT22;23726;52.520;13.434;2022-07-29T00:00:39;25.80;37.00
37886;DHT22;23726;52.520;13.434;2022-07-29T00:03:05;25.80;37.00
37886;DHT22;23726;52.520;13.434;2022-07-29T00:05:30;25.80;37.00
37886;DHT22;23726;52.520;13.434;2022-07-29T00:07:56;25.80;37.10
37886;DHT22;23726;52.520;13.434;2022-07-29T00:10:22;25.80;37.00
37886;DHT22;23726;52.520;13.434;2022-07-29T00:12:49;25.80;37.10
37886;DHT22;23726;52.520;13.434;2022-07-29T00:15:15;25.80;37.10
37886;DHT22;23726;52.520;13.434;2022-07-29T00:17:40;25.80;37.00
37886;DHT22;23726;52.520;13.434;2022-07-29T00:20:07;25.80;37.10
37886;DHT22;23726;52.520;13.434;2022-07-29T00:22:37;25.80;37.10
37886;DHT22;23726;52.520;13.434;2022-07-29T00:25:03;25.90;37.20
37886;DHT22;23726;52.520;13.434;2022-07-29T00:27:28;25.80;37.10
37886;DHT22;23726;52.520;13.434;2022-07-29T00:29:54;25.90;37.20
37886;DHT22;23726;52.520;13.434;2022-07-29T00:32:20;25.80;37.20
37886;DHT22;23726;52.520;13.434;2022-07-29T00:34:46;25.90;37.30
37886;DHT22;23726;52.520;13.434;2022-07-29T00:37:30;25.80;37.20
37886;DHT22;23726;52.520;13.434;2022-07-29T00:39:55;25.80;37.20
37886;DHT22;23726;52.520;13.434;2022-07-29T00:42:22;25.90;37.30
37886;DHT22;23726;52.520;13.434;2022-07-29T00:44:48;25.80;37.20
37886;DHT22;23726;52.520;13.434;2022-07-29T00:47:14;25.80;37.30
37886;DHT22;23726;52.520;13.434;2022-07-29T00:49:41;25.80;37.40
37886;DHT22;23726;52.520;13.434;2022-07-29T00:52:08;25.80;37.40
37886;DHT22;23726;52.520;13.434;2022-07-29T00:54:34;25.80;37.30
37886;DHT22;23726;52.520;13.434;2022-07-29T00:57:01;25.80;37.40
37886;DHT22;23726;52.520;13.434;2022-07-29T00:59:27;25.90;37.50
37886;DHT22;23726;52.520;13.434;2022-07-29T01:01:54;25.80;37.50
37886;DHT22;23726;52.520;13.434;2022-07-29T01:04:20;25.90;37.60
37886;DHT22;23726;52.520;13.434;2022-07-29T01:06:47;25.80;37.60
37886;DHT22;23726;52.520;13.434;2022-07-29T01:09:14;25.90;37.70
37886;DHT22;23726;52.520;13.434;2022-07-29T01:11:42;25.90;37.70
37886;DHT22;23726;52.520;13.434;2022-07-29T01:14:08;25.80;37.70
37886;DHT22;23726;52.520;13.434;2022-07-29T01:16:58;25.80;37.70
37886;DHT22;23726;52.520;13.434;2022-07-29T01:19:53;25.80;37.60
37886;DHT22;23726;52.520;13.434;2022-07-29T01:30:58;25.80;37.80
37886;DHT22;23726;52.520;13.434;2022-07-29T01:33:27;25.80;38.00
37886;DHT22;23726;52.520;13.434;2022-07-29T01:36:19;25.80;38.00
37886;DHT22;23726;52.520;13.434;2022-07-29T01:42:05;25.80;38.10
37886;DHT22;23726;52.520;13.434;2022-07-29T01:44:37;25.80;38.10
37886;DHT22;23726;52.520;13.434;2022-07-29T01:47:11;25.80;37.90
37886;DHT22;23726;52.520;13.434;2022-07-29T01:49:42;25.80;38.00
37886;DHT22;23726;52.520;13.434;2022-07-29T01:52:15;25.70;38.00
37886;DHT22;23726;52.520;13.434;2022-07-29T01:54:44;25.70;38.00
37886;DHT22;23726;52.520;13.434;2022-07-29T01:57:13;25.70;38.10
37886;DHT22;23726;52.520;13.434;2022-07-29T01:59:40;25.70;38.00
37886;DHT22;23726;52.520;13.434;2022-07-29T02:02:08;25.70;38.10
37886;DHT22;23726;52.520;13.434;2022-07-29T02:04:36;25.60;37.90
37886;DHT22;23726;52.520;13.434;2022-07-29T02:07:04;25.60;38.30
37886;DHT22;23726;52.520;13.434;2022-07-29T02:09:34;25.60;38.30
37886;DHT22;23726;52.520;13.434;2022-07-29T02:12:02;25.60;38.20
37886;DHT22;23726;52.520;13.434;2022-07-29T02:14:32;25.70;38.20
37886;DHT22;23726;52.520;13.434;2022-07-29T02:17:00;25.70;38.10
37886;DHT22;23726;52.520;13.434;2022-07-29T02:19:27;25.70;38.10
37886;DHT22;23726;52.520;13.434;2022-07-29T02:21:55;25.70;38.00
37886;DHT22;23726;52.520;13.434;2022-07-29T02:24:23;25.80;38.10
37886;DHT22;23726;52.520;13.434;2022-07-29T02:26:51;25.70;38.00
37886;DHT22;23726;52.520;13.434;2022-07-29T02:29:21;25.80;38.20
37886;DHT22;23726;52.520;13.434;2022-07-29T02:31:50;25.80;38.30
37886;DHT22;23726;52.520;13.434;2022-07-29T02:34:18;25.80;38.20
37886;DHT22;23726;52.520;13.434;2022-07-29T02:36:45;25.80;38.30
37886;DHT22;23726;52.520;13.434;2022-07-29T02:39:12;25.80;38.30
37886;DHT22;23726;52.520;13.434;2022-07-29T02:41:43;25.70;38.30
37886;DHT22;23726;52.520;13.434;2022-07-29T02:44:20;25.80;38.40
37886;DHT22;23726;52.520;13.434;2022-07-29T02:49:43;25.70;38.40
37886;DHT22;23726;52.520;13.434;2022-07-29T02:52:40;25.70;38.40
37886;DHT22;23726;52.520;13.434;2022-07-29T02:55:25;25.70;38.40
37886;DHT22;23726;52.520;13.434;2022-07-29T02:58:24;25.70;38.50
37886;DHT22;23726;52.520;13.434;2022-07-29T03:00:57;25.80;38.50
37886;DHT22;23726;52.520;13.434;2022-07-29T03:03:32;25.70;38.40
37886;DHT22;23726;52.520;13.434;2022-07-29T03:06:01;25.70;38.40
37886;DHT22;23726;52.520;13.434;2022-07-29T03:08:27;25.60;38.40
37886;DHT22;23726;52.520;13.434;2022-07-29T03:10:54;25.70;38.40
37886;DHT22;23726;52.520;13.434;2022-07-29T03:13:20;25.70;38.50
37886;DHT22;23726;52.520;13.434;2022-07-29T03:15:47;25.70;38.50
37886;DHT22;23726;52.520;13.434;2022-07-29T03:18:13;25.70;38.50
37886;DHT22;23726;52.520;13.434;2022-07-29T03:20:39;25.70;38.40
37886;DHT22;23726;52.520;13.434;2022-07-29T03:23:05;25.70;38.40
37886;DHT22;23726;52.520;13.434;2022-07-29T03:25:31;25.70;38.50
37886;DHT22;23726;52.520;13.434;2022-07-29T03:27:56;25.70;38.60
37886;DHT22;23726;52.520;13.434;2022-07-29T03:30:23;25.80;38.50
37886;DHT22;23726;52.520;13.434;2022-07-29T03:32:50;25.70;38.30
37886;DHT22;23726;52.520;13.434;2022-07-29T03:35:17;25.70;38.30
37886;DHT22;23726;52.520;13.434;2022-07-29T03:37:43;25.70;38.50
37886;DHT22;23726;52.520;13.434;2022-07-29T03:40:12;25.70;38.30
37886;DHT22;23726;52.520;13.434;2022-07-29T03:42:40;25.70;38.40
37886;DHT22;23726;52.520;13.434;2022-07-29T03:45:12;25.70;38.40
37886;DHT22;23726;52.520;13.434;2022-07-29T03:47:43;25.70;38.40
37886;DHT22;23726;52.520;13.434;2022-07-29T03:50:12;25.70;38.50
37886;DHT22;23726;52.520;13.434;2022-07-29T03:52:39;25.70;38.50
37886;DHT22;23726;52.520;13.434;2022-07-29T03:55:07;25.70;38.50
37886;DHT22;23726;52.520;13.434;2022-07-29T03:57:35;25.60;38.50
37886;DHT22;23726;52.520;13.434;2022-07-29T04:00:03;25.70;38.40
37886;DHT22;23726;52.520;13.434;2022-07-29T04:02:31;25.70;38.60
37886;DHT22;23726;52.520;13.434;2022-07-29T04:04:57;25.70;38.50
37886;DHT22;23726;52.520;13.434;2022-07-29T04:07:23;25.70;38.40
37886;DHT22;23726;52.520;13.434;2022-07-29T04:09:49;25.70;38.50
37886;DHT22;23726;52.520;13.434;2022-07-29T04:12:14;25.70;38.50
37886;DHT22;23726;52.520;13.434;2022-07-29T04:14:41;25.70;38.50
37886;DHT22;23726;52.520;13.434;2022-07-29T04:17:07;25.70;38.30
37886;DHT22;23726;52.520;13.434;2022-07-29T04:19:33;25.70;38.60
37886;DHT22;23726;52.520;13.434;2022-07-29T04:21:59;25.70;38.50
37886;DHT22;23726;52.520;13.434;2022-07-29T04:24:25;25.70;38.40
37886;DHT22;23726;52.520;13.434;2022-07-29T04:26:51;25.70;38.40
37886;DHT22;23726;52.520;13.434;2022-07-29T04:29:17;25.70;38.50
37886;DHT22;23726;52.520;13.434;2022-07-29T04:31:43;25.70;38.40
37886;DHT22;23726;52.520;13.434;2022-07-29T04:34:09;25.70;38.40
37886;DHT22;23726;52.520;13.434;2022-07-29T04:36:36;25.70;38.60
37886;DHT22;23726;52.520;13.434;2022-07-29T04:39:02;25.70;38.60
37886;DHT22;23726;52.520;13.434;2022-07-29T04:41:28;25.60;38.60
37886;DHT22;23726;52.520;13.434;2022-07-29T04:43:54;25.70;38.30
37886;DHT22;23726;52.520;13.434;2022-07-29T04:46:19;25.60;38.50
37886;DHT22;23726;52.520;13.434;2022-07-29T04:48:46;25.60;38.50
37886;DHT22;23726;52.520;13.434;2022-07-29T04:51:14;25.60;39.10
37886;DHT22;23726;52.520;13.434;2022-07-29T04:53:39;25.60;38.70
37886;DHT22;23726;52.520;13.434;2022-07-29T04:56:05;25.60;38.60
37886;DHT22;23726;52.520;13.434;2022-07-29T04:58:30;25.60;38.60
37886;DHT22;23726;52.520;13.434;2022-07-29T05:00:56;25.60;38.60
37886;DHT22;23726;52.520;13.434;2022-07-29T05:03:22;25.70;38.70
37886;DHT22;23726;52.520;13.434;2022-07-29T05:05:47;25.70;38.70
37886;DHT22;23726;52.520;13.434;2022-07-29T05:08:13;25.70;38.70
37886;DHT22;23726;52.520;13.434;2022-07-29T05:10:38;25.60;38.60
37886;DHT22;23726;52.520;13.434;2022-07-29T05:13:05;25.60;38.70
37886;DHT22;23726;52.520;13.434;2022-07-29T05:15:35;25.70;38.80
37886;DHT22;23726;52.520;13.434;2022-07-29T05:18:01;25.60;38.50
37886;DHT22;23726;52.520;13.434;2022-07-29T05:20:27;25.70;38.80
37886;DHT22;23726;52.520;13.434;2022-07-29T05:22:55;25.70;38.60
37886;DHT22;23726;52.520;13.434;2022-07-29T05:25:21;25.60;38.70
37886;DHT22;23726;52.520;13.434;2022-07-29T05:27:47;25.70;38.60
37886;DHT22;23726;52.520;13.434;2022-07-29T05:30:14;25.60;38.50
37886;DHT22;23726;52.520;13.434;2022-07-29T05:32:39;25.60;38.50
37886;DHT22;23726;52.520;13.434;2022-07-29T05:35:06;25.60;38.50
37886;DHT22;23726;52.520;13.434;2022-07-29T05:37:33;25.60;38.60
37886;DHT22;23726;52.520;13.434;2022-07-29T05:39:58;25.60;38.50
37886;DHT22;23726;52.520;13.434;2022-07-29T05:42:24;25.60;38.60
37886;DHT22;23726;52.520;13.434;2022-07-29T05:44:50;25.60;38.40
37886;DHT22;23726;52.520;13.434;2022-07-29T05:47:16;25.60;38.80
37886;DHT22;23726;52.520;13.434;2022-07-29T05:49:41;25.60;38.70
37886;DHT22;23726;52.520;13.434;2022-07-29T05:52:07;25.60;38.60
37886;DHT22;23726;52.520;13.434;2022-07-29T05:54:34;25.60;38.50
37886;DHT22;23726;52.520;13.434;2022-07-29T05:57:00;25.60;38.60
37886;DHT22;23726;52.520;13.434;2022-07-29T05:59:25;25.60;38.50
37886;DHT22;23726;52.520;13.434;2022-07-29T06:01:51;25.60;38.60
37886;DHT22;23726;52.520;13.434;2022-07-29T06:04:17;25.60;38.50
37886;DHT22;23726;52.520;13.434;2022-07-29T06:06:43;25.60;38.50
37886;DHT22;23726;52.520;13.434;2022-07-29T06:09:09;25.70;38.60
37886;DHT22;23726;52.520;13.434;2022-07-29T06:11:35;25.70;38.60
37886;DHT22;23726;52.520;13.434;2022-07-29T06:14:00;25.60;38.60
37886;DHT22;23726;52.520;13.434;2022-07-29T06:16:28;25.60;38.70
37886;DHT22;23726;52.520;13.434;2022-07-29T06:18:54;25.60;38.70
37886;DHT22;23726;52.520;13.434;2022-07-29T06:21:19;25.60;38.70
37886;DHT22;23726;52.520;13.434;2022-07-29T06:23:45;25.60;38.70
37886;DHT22;23726;52.520;13.434;2022-07-29T06:26:10;25.60;38.70
37886;DHT22;23726;52.520;13.434;2022-07-29T06:28:36;25.60;38.90
37886;DHT22;23726;52.520;13.434;2022-07-29T06:31:02;25.60;38.80
37886;DHT22;23726;52.520;13.434;2022-07-29T06:33:29;25.60;38.90
37886;DHT22;23726;52.520;13.434;2022-07-29T06:35:54;25.60;38.80
37886;DHT22;23726;52.520;13.434;2022-07-29T06:38:20;25.60;38.90
37886;DHT22;23726;52.520;13.434;2022-07-29T06:40:46;25.60;38.80
37886;DHT22;23726;52.520;13.434;2022-07-29T06:43:33;25.60;39.10
37886;DHT22;23726;52.520;13.434;2022-07-29T06:46:02;25.60;38.90
37886;DHT22;23726;52.520;13.434;2022-07-29T06:48:28;25.60;38.90
37886;DHT22;23726;52.520;13.434;2022-07-29T06:50:54;25.60;38.90
37886;DHT22;23726;52.520;13.434;2022-07-29T06:53:20;25.60;39.10
37886;DHT22;23726;52.520;13.434;2022-07-29T06:55:46;25.60;38.90
37886;DHT22;23726;52.520;13.434;2022-07-29T06:58:11;25.60;39.00
37886;DHT22;23726;52.520;13.434;2022-07-29T07:00:37;25.60;39.10
37886;DHT22;23726;52.520;13.434;2022-07-29T07:03:03;25.60;38.90
37886;DHT22;23726;52.520;13.434;2022-07-29T07:05:28;25.60;38.90
37886;DHT22;23726;52.520;13.434;2022-07-29T07:07:54;25.60;39.00
37886;DHT22;23726;52.520;13.434;2022-07-29T07:10:22;25.60;38.80
37886;DHT22;23726;52.520;13.434;2022-07-29T07:12:48;25.60;38.80
37886;DHT22;23726;52.520;13.434;2022-07-29T07:15:13;25.60;38.70
37886;DHT22;23726;52.520;13.434;2022-07-29T07:17:41;25.60;38.80
37886;DHT22;23726;52.520;13.434;2022-07-29T07:20:07;25.70;38.80
37886;DHT22;23726;52.520;13.434;2022-07-29T07:22:33;25.60;38.90
37886;DHT22;23726;52.520;13.434;2022-07-29T07:24:58;25.60;38.90
37886;DHT22;23726;52.520;13.434;2022-07-29T07:27:24;25.60;38.90
37886;DHT22;23726;52.520;13.434;2022-07-29T07:29:49;25.60;39.10
37886;DHT22;23726;52.520;13.434;2022-07-29T07:32:15;25.50;39.10
37886;DHT22;23726;52.520;13.434;2022-07-29T07:34:42;25.60;39.00
37886;DHT22;23726;52.520;13.434;2022-07-29T07:37:09;25.60;38.90
37886;DHT22;23726;52.520;13.434;2022-07-29T07:39:35;25.60;39.10
37886;DHT22;23726;52.520;13.434;2022-07-29T07:42:00;25.60;39.00
37886;DHT22;23726;52.520;13.434;2022-07-29T07:44:26;25.60;39.20
37886;DHT22;23726;52.520;13.434;2022-07-29T07:46:52;25.60;39.00
37886;DHT22;23726;52.520;13.434;2022-07-29T07:49:21;25.60;39.20
37886;DHT22;23726;52.520;13.434;2022-07-29T07:51:46;25.60;39.30
37886;DHT22;23726;52.520;13.434;2022-07-29T07:54:14;25.50;39.20
37886;DHT22;23726;52.520;13.434;2022-07-29T07:56:39;25.60;39.30
37886;DHT22;23726;52.520;13.434;2022-07-29T07:59:05;25.60;39.00
37886;DHT22;23726;52.520;13.434;2022-07-29T08:01:30;25.60;39.20
37886;DHT22;23726;52.520;13.434;2022-07-29T08:03:57;25.60;39.10
37886;DHT22;23726;52.520;13.434;2022-07-29T08:06:22;25.60;39.10
37886;DHT22;23726;52.520;13.434;2022-07-29T08:08:50;25.60;39.20
37886;DHT22;23726;52.520;13.434;2022-07-29T08:11:15;25.70;39.10
37886;DHT22;23726;52.520;13.434;2022-07-29T08:13:42;25.70;39.00
37886;DHT22;23726;52.520;13.434;2022-07-29T08:16:08;25.70;38.80
37886;DHT22;23726;52.520;13.434;2022-07-29T08:18:39;25.70;38.70
37886;DHT22;23726;52.520;13.434;2022-07-29T08:21:05;25.70;38.60
37886;DHT22;23726;52.520;13.434;2022-07-29T08:23:31;25.70;38.50
37886;DHT22;23726;52.520;13.434;2022-07-29T08:26:12;25.70;38.50
37886;DHT22;23726;52.520;13.434;2022-07-29T08:28:40;25.70;38.40
37886;DHT22;23726;52.520;13.434;2022-07-29T08:31:07;25.70;38.60
37886;DHT22;23726;52.520;13.434;2022-07-29T08:33:33;25.70;38.40
37886;DHT22;23726;52.520;13.434;2022-07-29T08:35:59;25.70;38.60
37886;DHT22;23726;52.520;13.434;2022-07-29T08:38:26;25.70;38.60
37886;DHT22;23726;52.520;13.434;2022-07-29T08:40:53;25.70;38.60
37886;DHT22;23726;52.520;13.434;2022-07-29T08:43:19;25.70;38.60
37886;DHT22;23726;52.520;13.434;2022-07-29T08:45:49;25.70;38.50
37886;DHT22;23726;52.520;13.434;2022-07-29T08:48:20;25.70;38.60
37886;DHT22;23726;52.520;13.434;2022-07-29T08:50:47;25.70;38.50
37886;DHT22;23726;52.520;13.434;2022-07-29T08:53:15;25.70;38.60
37886;DHT22;23726;52.520;13.434;2022-07-29T08:55:44;25.70;38.40
37886;DHT22;23726;52.520;13.434;2022-07-29T08:58:11;25.70;38.50
37886;DHT22;23726;52.520;13.434;2022-07-29T09:00:42;25.70;38.40
37886;DHT22;23726;52.520;13.434;2022-07-29T09:03:09;25.70;38.50
37886;DHT22;23726;52.520;13.434;2022-07-29T09:05:36;25.70;38.50
37886;DHT22;23726;52.520;13.434;2022-07-29T09:08:03;25.70;38.50
37886;DHT22;23726;52.520;13.434;2022-07-29T09:10:29;25.70;38.40
37886;DHT22;23726;52.520;13.434;2022-07-29T09:12:55;25.70;38.40
37886;DHT22;23726;52.520;13.434;2022-07-29T09:15:21;25.70;38.40
37886;DHT22;23726;52.520;13.434;2022-07-29T09:17:48;25.70;38.40
37886;DHT22;23726;52.520;13.434;2022-07-29T09:20:19;25.80;38.40
37886;DHT22;23726;52.520;13.434;2022-07-29T09:22:46;25.80;38.40
37886;DHT22;23726;52.520;13.434;2022-07-29T09:25:31;25.70;38.30
37886;DHT22;23726;52.520;13.434;2022-07-29T09:28:06;25.70;38.30
37886;DHT22;23726;52.520;13.434;2022-07-29T09:30:31;25.80;38.40
37886;DHT22;23726;52.520;13.434;2022-07-29T09:32:59;25.80;38.30
37886;DHT22;23726;52.520;13.434;2022-07-29T09:35:27;25.70;38.40
37886;DHT22;23726;52.520;13.434;2022-07-29T09:37:53;25.70;38.30
37886;DHT22;23726;52.520;13.434;2022-07-29T09:40:24;25.80;38.40
37886;DHT22;23726;52.520;13.434;2022-07-29T09:42:50;25.80;38.40
37886;DHT22;23726;52.520;13.434;2022-07-29T09:45:33;25.80;38.40
37886;DHT22;23726;52.520;13.434;2022-07-29T09:48:17;25.80;38.40
37886;DHT22;23726;52.520;13.434;2022-07-29T09:50:46;25.80;38.50
37886;DHT22;23726;52.520;13.434;2022-07-29T09:55:58;25.70;37.10
37886;DHT22;23726;52.520;13.434;2022-07-29T09:58:24;25.70;37.20
37886;DHT22;23726;52.520;13.434;2022-07-29T10:00:51;25.70;36.70
37886;DHT22;23726;52.520;13.434;2022-07-29T10:03:19;25.70;36.70
37886;DHT22;23726;52.520;13.434;2022-07-29T10:05:45;25.70;36.80
37886;DHT22;23726;52.520;13.434;2022-07-29T10:08:12;25.60;37.20
37886;DHT22;23726;52.520;13.434;2022-07-29T10:10:41;25.70;37.30
37886;DHT22;23726;52.520;13.434;2022-07-29T10:13:12;25.70;37.30
37886;DHT22;23726;52.520;13.434;2022-07-29T10:15:41;25.70;37.30
37886;DHT22;23726;52.520;13.434;2022-07-29T10:18:09;25.70;37.30
37886;DHT22;23726;52.520;13.434;2022-07-29T10:20:37;25.70;37.20
37886;DHT22;23726;52.520;13.434;2022-07-29T10:23:03;25.70;37.30
37886;DHT22;23726;52.520;13.434;2022-07-29T10:25:29;25.70;37.30
37886;DHT22;23726;52.520;13.434;2022-07-29T10:27:55;25.70;37.30
37886;DHT22;23726;52.520;13.434;2022-07-29T10:30:23;25.70;37.20
37886;DHT22;23726;52.520;13.434;2022-07-29T10:33:15;25.80;37.20
37886;DHT22;23726;52.520;13.434;2022-07-29T10:36:05;25.80;37.30
37886;DHT22;23726;52.520;13.434;2022-07-29T10:38:41;25.70;37.10
37886;DHT22;23726;52.520;13.434;2022-07-29T10:41:34;25.80;37.10
37886;DHT22;23726;52.520;13.434;2022-07-29T10:44:14;25.80;37.10
37886;DHT22;23726;52.520;13.434;2022-07-29T10:46:41;25.80;37.00
37886;DHT22;23726;52.520;13.434;2022-07-29T10:49:13;25.70;37.00
37886;DHT22;23726;52.520;13.434;2022-07-29T10:51:57;25.80;36.60
37886;DHT22;23726;52.520;13.434;2022-07-29T10:57:14;25.80;36.90
37886;DHT22;23726;52.520;13.434;2022-07-29T10:59:44;25.80;36.90
37886;DHT22;23726;52.520;13.434;2022-07-29T11:05:04;25.80;37.00
37886;DHT22;23726;52.520;13.434;2022-07-29T11:07:31;25.80;37.00
37886;DHT22;23726;52.520;13.434;2022-07-29T11:15:16;25.80;37.40
37886;DHT22;23726;52.520;13.434;2022-07-29T11:22:58;25.80;38.20
37886;DHT22;23726;52.520;13.434;2022-07-29T11:25:23;25.80;39.00
37886;DHT22;23726;52.520;13.434;2022-07-29T11:27:52;25.80;38.60
37886;DHT22;23726;52.520;13.434;2022-07-29T11:30:19;25.80;38.70
37886;DHT22;23726;52.520;13.434;2022-07-29T11:32:45;25.80;38.70
37886;DHT22;23726;52.520;13.434;2022-07-29T11:35:14;25.90;38.90
37886;DHT22;23726;52.520;13.434;2022-07-29T11:37:40;25.90;39.00
37886;DHT22;23726;52.520;13.434;2022-07-29T11:45:13;25.90;39.10
37886;DHT22;23726;52.520;13.434;2022-07-29T11:50:15;25.90;39.10
37886;DHT22;23726;52.520;13.434;2022-07-29T11:52:46;25.90;39.10
37886;DHT22;23726;52.520;13.434;2022-07-29T11:55:23;25.90;39.20
37886;DHT22;23726;52.520;13.434;2022-07-29T11:58:00;25.90;39.10
37886;DHT22;23726;52.520;13.434;2022-07-29T12:00:28;25.90;39.20
37886;DHT22;23726;52.520;13.434;2022-07-29T12:02:54;25.90;39.20
37886;DHT22;23726;52.520;13.434;2022-07-29T12:05:21;25.90;39.10
37886;DHT22;23726;52.520;13.434;2022-07-29T12:07:47;25.90;39.10
37886;DHT22;23726;52.520;13.434;2022-07-29T12:10:13;25.90;39.00
37886;DHT22;23726;52.520;13.434;2022-07-29T12:12:39;25.90;39.00
37886;DHT22;23726;52.520;13.434;2022-07-29T12:15:31;25.90;38.80
37886;DHT22;23726;52.520;13.434;2022-07-29T12:17:57;26.00;38.90
37886;DHT22;23726;52.520;13.434;2022-07-29T12:20:28;25.90;38.90
37886;DHT22;23726;52.520;13.434;2022-07-29T12:22:55;25.90;38.80
37886;DHT22;23726;52.520;13.434;2022-07-29T12:25:23;25.90;38.80
37886;DHT22;23726;52.520;13.434;2022-07-29T12:27:59;25.90;38.80
37886;DHT22;23726;52.520;13.434;2022-07-29T12:30:44;25.90;38.80
37886;DHT22;23726;52.520;13.434;2022-07-29T12:33:22;25.90;38.80
37886;DHT22;23726;52.520;13.434;2022-07-29T12:35:54;25.90;38.80
37886;DHT22;23726;52.520;13.434;2022-07-29T12:38:22;25.90;38.80
37886;DHT22;23726;52.520;13.434;2022-07-29T12:40:48;25.90;38.80
37886;DHT22;23726;52.520;13.434;2022-07-29T12:43:22;25.90;38.90
37886;DHT22;23726;52.520;13.434;2022-07-29T12:45:51;25.90;38.90
37886;DHT22;23726;52.520;13.434;2022-07-29T12:48:39;25.90;39.00
37886;DHT22;23726;52.520;13.434;2022-07-29T12:51:07;25.90;38.90
37886;DHT22;23726;52.520;13.434;2022-07-29T12:53:34;25.90;39.00
37886;DHT22;23726;52.520;13.434;2022-07-29T12:56:00;25.90;39.00
37886;DHT22;23726;52.520;13.434;2022-07-29T12:58:41;25.90;39.00
37886;DHT22;23726;52.520;13.434;2022-07-29T13:01:12;25.90;39.00
37886;DHT22;23726;52.520;13.434;2022-07-29T13:03:58;25.90;39.00
37886;DHT22;23726;52.520;13.434;2022-07-29T13:06:40;25.90;39.00
37886;DHT22;23726;52.520;13.434;2022-07-29T13:09:10;26.00;39.10
37886;DHT22;23726;52.520;13.434;2022-07-29T13:11:41;25.90;39.10
37886;DHT22;23726;52.520;13.434;2022-07-29T13:14:11;25.90;39.10
37886;DHT22;23726;52.520;13.434;2022-07-29T13:17:08;25.90;39.10
37886;DHT22;23726;52.520;13.434;2022-07-29T13:19:39;25.90;39.10
37886;DHT22;23726;52.520;13.434;2022-07-29T13:22:34;25.90;39.10
37886;DHT22;23726;52.520;13.434;2022-07-29T13:25:01;25.90;39.20
37886;DHT22;23726;52.520;13.434;2022-07-29T13:27:28;25.90;39.20
37886;DHT22;23726;52.520;13.434;2022-07-29T13:29:56;25.90;39.20
37886;DHT22;23726;52.520;13.434;2022-07-29T13:32:23;25.90;39.20
37886;DHT22;23726;52.520;13.434;2022-07-29T13:34:49;26.00;39.20
37886;DHT22;23726;52.520;13.434;2022-07-29T13:37:15;26.00;39.30
37886;DHT22;23726;52.520;13.434;2022-07-29T13:39:42;26.00;39.30
37886;DHT22;23726;52.520;13.434;2022-07-29T13:42:09;26.00;39.30
37886;DHT22;23726;52.520;13.434;2022-07-29T13:44:41;26.00;39.30
37886;DHT22;23726;52.520;13.434;2022-07-29T13:47:07;26.00;39.30
37886;DHT22;23726;52.520;13.434;2022-07-29T13:49:35;26.00;39.30
37886;DHT22;23726;52.520;13.434;2022-07-29T13:52:01;26.00;39.30
37886;DHT22;23726;52.520;13.434;2022-07-29T13:54:26;26.00;39.40
37886;DHT22;23726;52.520;13.434;2022-07-29T13:56:52;26.00;39.30
37886;DHT22;23726;52.520;13.434;2022-07-29T13:59:17;26.00;39.30
37886;DHT22;23726;52.520;13.434;2022-07-29T14:01:44;26.00;39.30
37886;DHT22;23726;52.520;13.434;2022-07-29T14:04:10;26.00;39.30
37886;DHT22;23726;52.520;13.434;2022-07-29T14:06:36;26.00;39.20
37886;DHT22;23726;52.520;13.434;2022-07-29T14:09:03;26.00;39.30
37886;DHT22;23726;52.520;13.434;2022-07-29T14:11:31;26.00;39.20
37886;DHT22;23726;52.520;13.434;2022-07-29T14:13:57;26.00;39.20
37886;DHT22;23726;52.520;13.434;2022-07-29T14:16:23;26.00;39.20
37886;DHT22;23726;52.520;13.434;2022-07-29T14:18:48;26.00;39.20
37886;DHT22;23726;52.520;13.434;2022-07-29T14:21:14;26.00;39.20
37886;DHT22;23726;52.520;13.434;2022-07-29T14:23:39;26.00;39.20
37886;DHT22;23726;52.520;13.434;2022-07-29T14:26:06;26.00;39.20
37886;DHT22;23726;52.520;13.434;2022-07-29T14:28:31;26.00;39.20
37886;DHT22;23726;52.520;13.434;2022-07-29T14:30:57;26.00;39.20
37886;DHT22;23726;52.520;13.434;2022-07-29T14:33:22;26.00;39.20
37886;DHT22;23726;52.520;13.434;2022-07-29T14:35:48;26.10;39.30
37886;DHT22;23726;52.520;13.434;2022-07-29T14:38:15;26.00;39.20
37886;DHT22;23726;52.520;13.434;2022-07-29T14:40:41;26.00;39.20
37886;DHT22;23726;52.520;13.434;2022-07-29T14:43:06;26.00;39.20
37886;DHT22;23726;52.520;13.434;2022-07-29T14:45:32;26.10;39.30
37886;DHT22;23726;52.520;13.434;2022-07-29T14:47:58;26.00;39.20
37886;DHT22;23726;52.520;13.434;2022-07-29T14:50:23;26.00;39.20
37886;DHT22;23726;52.520;13.434;2022-07-29T14:52:51;26.00;39.20
37886;DHT22;23726;52.520;13.434;2022-07-29T14:55:17;26.00;39.20
37886;DHT22;23726;52.520;13.434;2022-07-29T14:57:43;26.10;39.20
37886;DHT22;23726;52.520;13.434;2022-07-29T15:00:09;26.00;39.10
37886;DHT22;23726;52.520;13.434;2022-07-29T15:02:36;26.10;39.20
37886;DHT22;23726;52.520;13.434;2022-07-29T15:05:02;26.10;39.20
37886;DHT22;23726;52.520;13.434;2022-07-29T15:07:28;26.10;39.20
37886;DHT22;23726;52.520;13.434;2022-07-29T15:09:53;26.10;39.20
37886;DHT22;23726;52.520;13.434;2022-07-29T15:12:19;26.10;39.20
37886;DHT22;23726;52.520;13.434;2022-07-29T15:14:44;26.10;39.20
37886;DHT22;23726;52.520;13.434;2022-07-29T15:17:10;26.10;39.20
37886;DHT22;23726;52.520;13.434;2022-07-29T15:19:36;26.10;39.20
37886;DHT22;23726;52.520;13.434;2022-07-29T15:22:02;26.10;39.30
37886;DHT22;23726;52.520;13.434;2022-07-29T15:24:30;26.10;39.30
37886;DHT22;23726;52.520;13.434;2022-07-29T15:26:56;26.10;39.30
37886;DHT22;23726;52.520;13.434;2022-07-29T15:29:21;26.10;39.30
37886;DHT22;23726;52.520;13.434;2022-07-29T15:31:47;26.10;39.20
37886;DHT22;23726;52.520;13.434;2022-07-29T15:34:14;26.10;39.20
37886;DHT22;23726;52.520;13.434;2022-07-29T15:36:40;26.10;39.30
37886;DHT22;23726;52.520;13.434;2022-07-29T15:39:06;26.10;39.20
37886;DHT22;23726;52.520;13.434;2022-07-29T15:41:32;26.10;39.20
37886;DHT22;23726;52.520;13.434;2022-07-29T15:44:00;26.20;39.30
37886;DHT22;23726;52.520;13.434;2022-07-29T15:46:26;26.10;39.20
37886;DHT22;23726;52.520;13.434;2022-07-29T15:49:11;26.20;39.30
37886;DHT22;23726;52.520;13.434;2022-07-29T15:51:36;26.20;39.30
37886;DHT22;23726;52.520;13.434;2022-07-29T15:54:02;26.20;39.30
37886;DHT22;23726;52.520;13.434;2022-07-29T15:56:29;26.20;39.50
37886;DHT22;23726;52.520;13.434;2022-07-29T15:58:56;26.20;39.30
37886;DHT22;23726;52.520;13.434;2022-07-29T16:01:22;26.20;39.30
37886;DHT22;23726;52.520;13.434;2022-07-29T16:03:49;26.20;39.30